sensor_id;sensor_type;location;lat;lon;timestamp;P1;durP1;ratioP1;P2;durP2;ratioP2
38805;SDS011;25635;51.146;17.162;2022-11-03T00:01:38;18.67;;;9.70;;
38805;SDS011;25635;51.146;17.162;2022-11-03T00:04:07;15.87;;;9.20;;
38805;SDS011;25635;51.146;17.162;2022-11-03T00:06:36;17.00;;;9.77;;
38805;SDS011;25635;51.146;17.162;2022-11-03T00:09:06;14.83;;;8.93;;
38805;SDS011;25635;51.146;17.162;2022-11-03T00:11:36;16.73;;;10.10;;
38805;SDS011;25635;51.146;17.162;2022-11-03T00:14:05;16.83;;;9.27;;
38805;SDS011;25635;51.146;17.162;2022-11-03T00:16:33;17.10;;;8.17;;
38805;SDS011;25635;51.146;17.162;2022-11-03T00:19:00;16.57;;;8.73;;
38805;SDS011;25635;51.146;17.162;2022-11-03T00:21:26;16.60;;;7.97;;
38805;SDS011;25635;51.146;17.162;2022-11-03T00:23:54;14.23;;;7.57;;
38805;SDS011;25635;51.146;17.162;2022-11-03T00:28:54;17.13;;;8.13;;
38805;SDS011;25635;51.146;17.162;2022-11-03T00:31:28;14.80;;;7.77;;
38805;SDS011;25635;51.146;17.162;2022-11-03T00:33:58;14.87;;;7.47;;
38805;SDS011;25635;51.146;17.162;2022-11-03T00:36:29;15.93;;;7.83;;
38805;SDS011;25635;51.146;17.162;2022-11-03T00:38:59;14.90;;;8.30;;
38805;SDS011;25635;51.146;17.162;2022-11-03T00:41:25;14.87;;;7.97;;
38805;SDS011;25635;51.146;17.162;2022-11-03T00:43:53;15.40;;;8.13;;
38805;SDS011;25635;51.146;17.162;2022-11-03T00:46:20;15.43;;;8.20;;
38805;SDS011;25635;51.146;17.162;2022-11-03T00:48:48;14.97;;;8.13;;
38805;SDS011;25635;51.146;17.162;2022-11-03T00:53:50;16.03;;;9.03;;
38805;SDS011;25635;51.146;17.162;2022-11-03T00:56:29;18.48;;;8.88;;
38805;SDS011;25635;51.146;17.162;2022-11-03T00:58:59;18.07;;;9.00;;
38805;SDS011;25635;51.146;17.162;2022-11-03T01:01:31;19.57;;;9.27;;
38805;SDS011;25635;51.146;17.162;2022-11-03T01:04:07;17.77;;;9.47;;
38805;SDS011;25635;51.146;17.162;2022-11-03T01:06:54;14.45;;;8.60;;
38805;SDS011;25635;51.146;17.162;2022-11-03T01:09:23;17.77;;;9.53;;
38805;SDS011;25635;51.146;17.162;2022-11-03T01:12:03;17.50;;;9.23;;
38805;SDS011;25635;51.146;17.162;2022-11-03T01:17:14;15.73;;;9.40;;
38805;SDS011;25635;51.146;17.162;2022-11-03T01:19:49;18.10;;;9.63;;
38805;SDS011;25635;51.146;17.162;2022-11-03T01:22:17;18.20;;;9.30;;
38805;SDS011;25635;51.146;17.162;2022-11-03T01:24:45;18.63;;;10.20;;
38805;SDS011;25635;51.146;17.162;2022-11-03T01:27:17;17.40;;;9.13;;
38805;SDS011;25635;51.146;17.162;2022-11-03T01:29:42;16.17;;;9.10;;
38805;SDS011;25635;51.146;17.162;2022-11-03T01:32:09;16.30;;;9.13;;
38805;SDS011;25635;51.146;17.162;2022-11-03T01:34:36;18.63;;;9.40;;
38805;SDS011;25635;51.146;17.162;2022-11-03T01:37:03;15.33;;;8.77;;
38805;SDS011;25635;51.146;17.162;2022-11-03T01:39:29;17.37;;;10.00;;
38805;SDS011;25635;51.146;17.162;2022-11-03T01:41:56;17.33;;;9.97;;
38805;SDS011;25635;51.146;17.162;2022-11-03T01:44:27;17.03;;;10.33;;
38805;SDS011;25635;51.146;17.162;2022-11-03T01:47:20;17.90;;;9.50;;
38805;SDS011;25635;51.146;17.162;2022-11-03T01:50:05;16.47;;;10.03;;
38805;SDS011;25635;51.146;17.162;2022-11-03T01:52:36;15.27;;;9.73;;
38805;SDS011;25635;51.146;17.162;2022-11-03T01:55:11;20.00;;;10.80;;
38805;SDS011;25635;51.146;17.162;2022-11-03T01:57:54;18.50;;;10.63;;
38805;SDS011;25635;51.146;17.162;2022-11-03T02:00:30;20.83;;;11.23;;
38805;SDS011;25635;51.146;17.162;2022-11-03T02:02:57;22.77;;;11.37;;
38805;SDS011;25635;51.146;17.162;2022-11-03T02:05:24;18.30;;;10.43;;
38805;SDS011;25635;51.146;17.162;2022-11-03T02:07:55;18.57;;;10.07;;
38805;SDS011;25635;51.146;17.162;2022-11-03T02:10:36;18.63;;;10.40;;
38805;SDS011;25635;51.146;17.162;2022-11-03T02:13:06;17.00;;;10.00;;
38805;SDS011;25635;51.146;17.162;2022-11-03T02:15:44;21.90;;;11.00;;
38805;SDS011;25635;51.146;17.162;2022-11-03T02:18:15;20.33;;;11.93;;
38805;SDS011;25635;51.146;17.162;2022-11-03T02:20:45;22.00;;;13.10;;
38805;SDS011;25635;51.146;17.162;2022-11-03T02:23:19;23.27;;;14.93;;
38805;SDS011;25635;51.146;17.162;2022-11-03T02:25:57;22.47;;;12.80;;
38805;SDS011;25635;51.146;17.162;2022-11-03T02:28:25;22.70;;;14.40;;
38805;SDS011;25635;51.146;17.162;2022-11-03T02:37:30;24.07;;;14.37;;
38805;SDS011;25635;51.146;17.162;2022-11-03T02:42:05;24.03;;;15.50;;
38805;SDS011;25635;51.146;17.162;2022-11-03T02:44:33;24.20;;;15.80;;
38805;SDS011;25635;51.146;17.162;2022-11-03T02:47:02;26.13;;;15.53;;
38805;SDS011;25635;51.146;17.162;2022-11-03T02:49:53;24.30;;;15.53;;
38805;SDS011;25635;51.146;17.162;2022-11-03T02:58:17;20.23;;;12.33;;
38805;SDS011;25635;51.146;17.162;2022-11-03T03:01:18;21.10;;;12.43;;
38805;SDS011;25635;51.146;17.162;2022-11-03T03:03:55;20.37;;;13.37;;
38805;SDS011;25635;51.146;17.162;2022-11-03T03:06:29;21.10;;;13.03;;
38805;SDS011;25635;51.146;17.162;2022-11-03T03:09:00;23.20;;;13.47;;
38805;SDS011;25635;51.146;17.162;2022-11-03T03:11:30;23.80;;;14.23;;
38805;SDS011;25635;51.146;17.162;2022-11-03T03:16:50;24.53;;;16.67;;
38805;SDS011;25635;51.146;17.162;2022-11-03T03:19:35;19.83;;;13.97;;
38805;SDS011;25635;51.146;17.162;2022-11-03T03:22:23;23.65;;;14.33;;
38805;SDS011;25635;51.146;17.162;2022-11-03T03:28:03;22.40;;;13.53;;
38805;SDS011;25635;51.146;17.162;2022-11-03T03:30:33;21.00;;;13.27;;
38805;SDS011;25635;51.146;17.162;2022-11-03T03:33:03;19.00;;;12.67;;
38805;SDS011;25635;51.146;17.162;2022-11-03T03:35:32;19.67;;;12.73;;
38805;SDS011;25635;51.146;17.162;2022-11-03T03:38:07;26.00;;;14.13;;
38805;SDS011;25635;51.146;17.162;2022-11-03T03:40:34;20.80;;;13.43;;
38805;SDS011;25635;51.146;17.162;2022-11-03T03:43:03;23.30;;;13.87;;
38805;SDS011;25635;51.146;17.162;2022-11-03T03:45:33;20.57;;;13.40;;
38805;SDS011;25635;51.146;17.162;2022-11-03T03:48:01;24.07;;;14.03;;
38805;SDS011;25635;51.146;17.162;2022-11-03T03:50:30;24.53;;;13.27;;
38805;SDS011;25635;51.146;17.162;2022-11-03T03:53:00;19.63;;;12.57;;
38805;SDS011;25635;51.146;17.162;2022-11-03T03:55:33;22.77;;;13.10;;
38805;SDS011;25635;51.146;17.162;2022-11-03T03:58:10;22.53;;;11.83;;
38805;SDS011;25635;51.146;17.162;2022-11-03T04:00:39;21.70;;;11.67;;
38805;SDS011;25635;51.146;17.162;2022-11-03T04:03:16;18.57;;;10.70;;
38805;SDS011;25635;51.146;17.162;2022-11-03T04:05:46;21.40;;;11.77;;
38805;SDS011;25635;51.146;17.162;2022-11-03T04:08:13;23.47;;;12.33;;
38805;SDS011;25635;51.146;17.162;2022-11-03T04:10:41;21.57;;;13.00;;
38805;SDS011;25635;51.146;17.162;2022-11-03T04:13:26;16.95;;;10.53;;
38805;SDS011;25635;51.146;17.162;2022-11-03T04:16:11;20.23;;;11.83;;
38805;SDS011;25635;51.146;17.162;2022-11-03T04:18:56;15.97;;;10.07;;
38805;SDS011;25635;51.146;17.162;2022-11-03T04:21:41;21.63;;;10.63;;
38805;SDS011;25635;51.146;17.162;2022-11-03T04:24:26;18.47;;;10.83;;
38805;SDS011;25635;51.146;17.162;2022-11-03T04:26:52;17.70;;;11.87;;
38805;SDS011;25635;51.146;17.162;2022-11-03T04:29:21;20.60;;;11.77;;
38805;SDS011;25635;51.146;17.162;2022-11-03T04:31:48;20.43;;;12.27;;
38805;SDS011;25635;51.146;17.162;2022-11-03T04:34:14;17.03;;;11.23;;
38805;SDS011;25635;51.146;17.162;2022-11-03T04:36:40;17.33;;;11.83;;
38805;SDS011;25635;51.146;17.162;2022-11-03T04:39:17;16.53;;;11.00;;
38805;SDS011;25635;51.146;17.162;2022-11-03T04:41:45;17.30;;;11.27;;
38805;SDS011;25635;51.146;17.162;2022-11-03T04:44:15;20.33;;;11.30;;
38805;SDS011;25635;51.146;17.162;2022-11-03T04:46:42;17.73;;;11.07;;
38805;SDS011;25635;51.146;17.162;2022-11-03T04:49:11;18.23;;;10.23;;
38805;SDS011;25635;51.146;17.162;2022-11-03T04:51:45;20.65;;;9.55;;
38805;SDS011;25635;51.146;17.162;2022-11-03T04:54:18;15.80;;;9.97;;
38805;SDS011;25635;51.146;17.162;2022-11-03T04:56:44;20.33;;;10.20;;
38805;SDS011;25635;51.146;17.162;2022-11-03T04:59:10;17.27;;;10.27;;
38805;SDS011;25635;51.146;17.162;2022-11-03T05:01:38;18.40;;;10.67;;
38805;SDS011;25635;51.146;17.162;2022-11-03T05:04:12;17.23;;;9.80;;
38805;SDS011;25635;51.146;17.162;2022-11-03T05:06:49;16.63;;;9.67;;
38805;SDS011;25635;51.146;17.162;2022-11-03T05:09:25;17.07;;;9.70;;
38805;SDS011;25635;51.146;17.162;2022-11-03T05:11:54;16.70;;;9.03;;
38805;SDS011;25635;51.146;17.162;2022-11-03T05:16:52;17.37;;;8.53;;
38805;SDS011;25635;51.146;17.162;2022-11-03T05:19:24;15.17;;;8.03;;
38805;SDS011;25635;51.146;17.162;2022-11-03T05:21:55;17.07;;;8.10;;
38805;SDS011;25635;51.146;17.162;2022-11-03T05:24:23;15.77;;;8.77;;
38805;SDS011;25635;51.146;17.162;2022-11-03T05:26:51;21.07;;;10.20;;
38805;SDS011;25635;51.146;17.162;2022-11-03T05:29:25;23.53;;;10.10;;
38805;SDS011;25635;51.146;17.162;2022-11-03T05:32:01;19.83;;;9.53;;
38805;SDS011;25635;51.146;17.162;2022-11-03T05:34:34;17.27;;;9.23;;
38805;SDS011;25635;51.146;17.162;2022-11-03T05:37:33;18.35;;;9.78;;
38805;SDS011;25635;51.146;17.162;2022-11-03T05:40:12;18.95;;;9.35;;
38805;SDS011;25635;51.146;17.162;2022-11-03T05:42:40;18.73;;;8.97;;
38805;SDS011;25635;51.146;17.162;2022-11-03T05:45:56;16.70;;;9.50;;
38805;SDS011;25635;51.146;17.162;2022-11-03T05:47:52;16.07;;;8.73;;
38805;SDS011;25635;51.146;17.162;2022-11-03T05:53:01;13.37;;;8.13;;
38805;SDS011;25635;51.146;17.162;2022-11-03T05:55:27;15.73;;;8.13;;
38805;SDS011;25635;51.146;17.162;2022-11-03T05:57:57;17.00;;;8.80;;
38805;SDS011;25635;51.146;17.162;2022-11-03T06:00:26;14.67;;;9.37;;
38805;SDS011;25635;51.146;17.162;2022-11-03T06:02:58;16.47;;;8.90;;
38805;SDS011;25635;51.146;17.162;2022-11-03T06:05:25;20.37;;;9.73;;
38805;SDS011;25635;51.146;17.162;2022-11-03T06:07:53;18.20;;;10.77;;
38805;SDS011;25635;51.146;17.162;2022-11-03T06:13:02;19.93;;;9.63;;
38805;SDS011;25635;51.146;17.162;2022-11-03T06:15:47;16.10;;;9.30;;
38805;SDS011;25635;51.146;17.162;2022-11-03T06:18:20;17.47;;;9.33;;
38805;SDS011;25635;51.146;17.162;2022-11-03T06:20:50;17.40;;;8.43;;
38805;SDS011;25635;51.146;17.162;2022-11-03T06:23:23;17.43;;;8.83;;
38805;SDS011;25635;51.146;17.162;2022-11-03T06:25:51;20.10;;;9.67;;
38805;SDS011;25635;51.146;17.162;2022-11-03T06:28:22;17.53;;;10.43;;
38805;SDS011;25635;51.146;17.162;2022-11-03T06:30:51;18.03;;;9.70;;
38805;SDS011;25635;51.146;17.162;2022-11-03T06:35:52;15.10;;;9.33;;
38805;SDS011;25635;51.146;17.162;2022-11-03T06:38:22;16.10;;;9.77;;
38805;SDS011;25635;51.146;17.162;2022-11-03T06:40:52;15.97;;;9.60;;
38805;SDS011;25635;51.146;17.162;2022-11-03T06:43:22;16.00;;;9.63;;
38805;SDS011;25635;51.146;17.162;2022-11-03T06:45:58;16.15;;;8.63;;
38805;SDS011;25635;51.146;17.162;2022-11-03T06:48:29;16.33;;;8.77;;
38805;SDS011;25635;51.146;17.162;2022-11-03T06:51:00;17.50;;;8.50;;
38805;SDS011;25635;51.146;17.162;2022-11-03T06:53:28;15.47;;;8.53;;
38805;SDS011;25635;51.146;17.162;2022-11-03T06:55:57;13.83;;;8.87;;
38805;SDS011;25635;51.146;17.162;2022-11-03T06:58:29;19.00;;;10.23;;
38805;SDS011;25635;51.146;17.162;2022-11-03T07:00:58;18.03;;;9.80;;
38805;SDS011;25635;51.146;17.162;2022-11-03T07:03:28;21.40;;;10.27;;
38805;SDS011;25635;51.146;17.162;2022-11-03T07:08:48;19.03;;;10.03;;
38805;SDS011;25635;51.146;17.162;2022-11-03T07:11:23;19.43;;;9.33;;
38805;SDS011;25635;51.146;17.162;2022-11-03T07:14:01;18.80;;;9.97;;
38805;SDS011;25635;51.146;17.162;2022-11-03T07:16:43;17.87;;;9.63;;
38805;SDS011;25635;51.146;17.162;2022-11-03T07:19:13;14.60;;;9.33;;
38805;SDS011;25635;51.146;17.162;2022-11-03T07:21:53;20.43;;;9.13;;
38805;SDS011;25635;51.146;17.162;2022-11-03T07:24:21;18.77;;;9.87;;
38805;SDS011;25635;51.146;17.162;2022-11-03T07:27:06;16.77;;;9.50;;
38805;SDS011;25635;51.146;17.162;2022-11-03T07:29:43;18.70;;;9.17;;
38805;SDS011;25635;51.146;17.162;2022-11-03T07:32:29;19.13;;;8.83;;
38805;SDS011;25635;51.146;17.162;2022-11-03T07:34:47;15.17;;;8.37;;
38805;SDS011;25635;51.146;17.162;2022-11-03T07:37:20;17.30;;;8.73;;
38805;SDS011;25635;51.146;17.162;2022-11-03T07:39:49;18.47;;;8.53;;
38805;SDS011;25635;51.146;17.162;2022-11-03T07:42:17;14.50;;;7.97;;
38805;SDS011;25635;51.146;17.162;2022-11-03T07:44:47;15.80;;;8.10;;
38805;SDS011;25635;51.146;17.162;2022-11-03T07:47:15;17.37;;;8.77;;
38805;SDS011;25635;51.146;17.162;2022-11-03T07:49:50;15.20;;;8.25;;
38805;SDS011;25635;51.146;17.162;2022-11-03T07:52:21;15.20;;;7.90;;
38805;SDS011;25635;51.146;17.162;2022-11-03T07:54:49;14.30;;;7.77;;
38805;SDS011;25635;51.146;17.162;2022-11-03T07:57:20;15.33;;;7.73;;
38805;SDS011;25635;51.146;17.162;2022-11-03T07:59:50;14.03;;;7.67;;
38805;SDS011;25635;51.146;17.162;2022-11-03T08:04:52;14.20;;;8.17;;
38805;SDS011;25635;51.146;17.162;2022-11-03T08:07:18;15.90;;;7.60;;
38805;SDS011;25635;51.146;17.162;2022-11-03T08:09:44;16.13;;;7.70;;
38805;SDS011;25635;51.146;17.162;2022-11-03T08:12:10;19.83;;;7.73;;
38805;SDS011;25635;51.146;17.162;2022-11-03T08:14:36;15.23;;;7.20;;
38805;SDS011;25635;51.146;17.162;2022-11-03T08:17:03;18.80;;;8.00;;
38805;SDS011;25635;51.146;17.162;2022-11-03T08:19:29;15.80;;;9.03;;
38805;SDS011;25635;51.146;17.162;2022-11-03T08:21:56;16.93;;;7.80;;
38805;SDS011;25635;51.146;17.162;2022-11-03T08:24:22;16.90;;;7.50;;
38805;SDS011;25635;51.146;17.162;2022-11-03T08:26:48;14.33;;;7.63;;
38805;SDS011;25635;51.146;17.162;2022-11-03T08:29:14;13.95;;;7.53;;
38805;SDS011;25635;51.146;17.162;2022-11-03T08:31:43;16.73;;;7.83;;
38805;SDS011;25635;51.146;17.162;2022-11-03T08:34:09;12.83;;;6.87;;
38805;SDS011;25635;51.146;17.162;2022-11-03T08:36:36;17.40;;;7.23;;
38805;SDS011;25635;51.146;17.162;2022-11-03T08:39:02;13.50;;;7.17;;
38805;SDS011;25635;51.146;17.162;2022-11-03T08:41:29;16.93;;;8.20;;
38805;SDS011;25635;51.146;17.162;2022-11-03T08:43:56;15.45;;;7.87;;
38805;SDS011;25635;51.146;17.162;2022-11-03T08:46:22;13.50;;;7.85;;
38805;SDS011;25635;51.146;17.162;2022-11-03T08:48:48;17.25;;;8.30;;
38805;SDS011;25635;51.146;17.162;2022-11-03T08:51:14;13.75;;;6.42;;
38805;SDS011;25635;51.146;17.162;2022-11-03T08:53:41;13.25;;;5.90;;
38805;SDS011;25635;51.146;17.162;2022-11-03T08:56:08;12.00;;;5.35;;
38805;SDS011;25635;51.146;17.162;2022-11-03T08:58:35;10.70;;;4.92;;
38805;SDS011;25635;51.146;17.162;2022-11-03T09:01:01;12.93;;;4.80;;
38805;SDS011;25635;51.146;17.162;2022-11-03T09:03:28;11.90;;;5.17;;
38805;SDS011;25635;51.146;17.162;2022-11-03T09:05:54;11.15;;;5.90;;
38805;SDS011;25635;51.146;17.162;2022-11-03T09:08:20;15.75;;;6.80;;
38805;SDS011;25635;51.146;17.162;2022-11-03T09:10:46;11.93;;;6.60;;
38805;SDS011;25635;51.146;17.162;2022-11-03T09:13:12;14.65;;;6.45;;
38805;SDS011;25635;51.146;17.162;2022-11-03T09:15:38;13.60;;;6.58;;
38805;SDS011;25635;51.146;17.162;2022-11-03T09:18:04;12.75;;;5.58;;
38805;SDS011;25635;51.146;17.162;2022-11-03T09:20:30;11.57;;;5.05;;
38805;SDS011;25635;51.146;17.162;2022-11-03T09:22:57;11.95;;;5.03;;
38805;SDS011;25635;51.146;17.162;2022-11-03T09:25:23;10.78;;;4.65;;
38805;SDS011;25635;51.146;17.162;2022-11-03T09:27:49;12.90;;;4.50;;
38805;SDS011;25635;51.146;17.162;2022-11-03T09:30:15;11.03;;;3.70;;
38805;SDS011;25635;51.146;17.162;2022-11-03T09:32:42;8.70;;;3.42;;
38805;SDS011;25635;51.146;17.162;2022-11-03T09:35:08;14.83;;;3.42;;
38805;SDS011;25635;51.146;17.162;2022-11-03T09:37:36;9.25;;;3.08;;
38805;SDS011;25635;51.146;17.162;2022-11-03T09:40:03;7.33;;;2.72;;
38805;SDS011;25635;51.146;17.162;2022-11-03T09:42:31;11.75;;;3.80;;
38805;SDS011;25635;51.146;17.162;2022-11-03T09:44:58;7.67;;;2.90;;
38805;SDS011;25635;51.146;17.162;2022-11-03T09:47:31;7.25;;;2.87;;
38805;SDS011;25635;51.146;17.162;2022-11-03T09:49:57;8.20;;;3.10;;
38805;SDS011;25635;51.146;17.162;2022-11-03T09:52:25;8.45;;;2.77;;
38805;SDS011;25635;51.146;17.162;2022-11-03T09:54:52;6.25;;;2.83;;
38805;SDS011;25635;51.146;17.162;2022-11-03T09:57:27;10.40;;;3.05;;
38805;SDS011;25635;51.146;17.162;2022-11-03T09:59:54;8.88;;;2.65;;
38805;SDS011;25635;51.146;17.162;2022-11-03T10:04:52;9.58;;;3.27;;
38805;SDS011;25635;51.146;17.162;2022-11-03T10:07:21;8.08;;;2.30;;
38805;SDS011;25635;51.146;17.162;2022-11-03T10:09:51;6.92;;;2.50;;
38805;SDS011;25635;51.146;17.162;2022-11-03T10:12:20;8.18;;;2.58;;
38805;SDS011;25635;51.146;17.162;2022-11-03T10:14:48;7.20;;;2.17;;
38805;SDS011;25635;51.146;17.162;2022-11-03T10:17:17;9.20;;;2.42;;
38805;SDS011;25635;51.146;17.162;2022-11-03T10:19:47;10.65;;;2.75;;
38805;SDS011;25635;51.146;17.162;2022-11-03T10:22:17;6.12;;;2.00;;
38805;SDS011;25635;51.146;17.162;2022-11-03T10:24:45;8.88;;;2.50;;
38805;SDS011;25635;51.146;17.162;2022-11-03T10:27:23;7.12;;;2.42;;
38805;SDS011;25635;51.146;17.162;2022-11-03T10:30:04;6.75;;;2.35;;
38805;SDS011;25635;51.146;17.162;2022-11-03T10:32:34;6.80;;;2.45;;
38805;SDS011;25635;51.146;17.162;2022-11-03T10:35:01;9.25;;;2.77;;
38805;SDS011;25635;51.146;17.162;2022-11-03T10:37:48;12.15;;;3.05;;
38805;SDS011;25635;51.146;17.162;2022-11-03T10:40:34;10.43;;;2.95;;
38805;SDS011;25635;51.146;17.162;2022-11-03T10:43:01;7.80;;;2.65;;
38805;SDS011;25635;51.146;17.162;2022-11-03T10:45:28;11.78;;;2.75;;
38805;SDS011;25635;51.146;17.162;2022-11-03T10:47:58;9.70;;;2.67;;
38805;SDS011;25635;51.146;17.162;2022-11-03T10:50:28;9.50;;;2.95;;
38805;SDS011;25635;51.146;17.162;2022-11-03T10:52:55;8.60;;;2.65;;
38805;SDS011;25635;51.146;17.162;2022-11-03T10:55:24;11.75;;;2.90;;
38805;SDS011;25635;51.146;17.162;2022-11-03T10:57:51;7.08;;;2.70;;
38805;SDS011;25635;51.146;17.162;2022-11-03T11:00:22;10.25;;;3.42;;
38805;SDS011;25635;51.146;17.162;2022-11-03T11:02:49;9.40;;;3.00;;
38805;SDS011;25635;51.146;17.162;2022-11-03T11:05:21;8.73;;;2.75;;
38805;SDS011;25635;51.146;17.162;2022-11-03T11:07:49;9.43;;;3.45;;
38805;SDS011;25635;51.146;17.162;2022-11-03T11:10:24;7.55;;;2.40;;
38805;SDS011;25635;51.146;17.162;2022-11-03T11:13:04;9.10;;;2.90;;
38805;SDS011;25635;51.146;17.162;2022-11-03T11:15:45;7.22;;;2.58;;
38805;SDS011;25635;51.146;17.162;2022-11-03T11:21:01;8.68;;;3.27;;
38805;SDS011;25635;51.146;17.162;2022-11-03T11:23:44;9.88;;;3.50;;
38805;SDS011;25635;51.146;17.162;2022-11-03T11:26:32;8.13;;;2.90;;
38805;SDS011;25635;51.146;17.162;2022-11-03T11:31:45;10.80;;;3.20;;
38805;SDS011;25635;51.146;17.162;2022-11-03T11:42:20;7.67;;;2.83;;
38805;SDS011;25635;51.146;17.162;2022-11-03T11:47:25;7.62;;;2.55;;
38805;SDS011;25635;51.146;17.162;2022-11-03T11:52:56;8.18;;;3.42;;
38805;SDS011;25635;51.146;17.162;2022-11-03T11:55:34;9.10;;;3.00;;
38805;SDS011;25635;51.146;17.162;2022-11-03T11:58:14;9.93;;;3.02;;
38805;SDS011;25635;51.146;17.162;2022-11-03T12:01:28;8.65;;;3.10;;
38805;SDS011;25635;51.146;17.162;2022-11-03T12:06:40;9.75;;;3.08;;
38805;SDS011;25635;51.146;17.162;2022-11-03T12:11:50;10.38;;;3.92;;
38805;SDS011;25635;51.146;17.162;2022-11-03T12:14:38;7.58;;;2.40;;
38805;SDS011;25635;51.146;17.162;2022-11-03T12:19:52;10.55;;;3.30;;
38805;SDS011;25635;51.146;17.162;2022-11-03T12:30:02;11.15;;;3.45;;
38805;SDS011;25635;51.146;17.162;2022-11-03T12:32:38;10.50;;;3.50;;
38805;SDS011;25635;51.146;17.162;2022-11-03T12:35:05;8.38;;;3.15;;
38805;SDS011;25635;51.146;17.162;2022-11-03T12:37:34;10.53;;;3.20;;
38805;SDS011;25635;51.146;17.162;2022-11-03T12:40:00;10.72;;;4.15;;
38805;SDS011;25635;51.146;17.162;2022-11-03T12:42:28;11.28;;;3.40;;
38805;SDS011;25635;51.146;17.162;2022-11-03T12:44:54;8.83;;;3.17;;
38805;SDS011;25635;51.146;17.162;2022-11-03T12:47:21;10.25;;;3.45;;
38805;SDS011;25635;51.146;17.162;2022-11-03T12:49:48;11.10;;;4.10;;
38805;SDS011;25635;51.146;17.162;2022-11-03T12:52:15;8.35;;;3.12;;
38805;SDS011;25635;51.146;17.162;2022-11-03T12:54:41;12.85;;;3.50;;
38805;SDS011;25635;51.146;17.162;2022-11-03T12:57:07;8.95;;;3.37;;
38805;SDS011;25635;51.146;17.162;2022-11-03T12:59:34;9.80;;;3.20;;
38805;SDS011;25635;51.146;17.162;2022-11-03T13:02:00;9.40;;;3.40;;
38805;SDS011;25635;51.146;17.162;2022-11-03T13:04:27;7.45;;;3.20;;
38805;SDS011;25635;51.146;17.162;2022-11-03T13:06:53;11.12;;;3.60;;
38805;SDS011;25635;51.146;17.162;2022-11-03T13:09:19;7.83;;;3.15;;
38805;SDS011;25635;51.146;17.162;2022-11-03T13:11:45;8.33;;;3.15;;
38805;SDS011;25635;51.146;17.162;2022-11-03T13:14:31;10.72;;;3.80;;
38805;SDS011;25635;51.146;17.162;2022-11-03T13:16:57;8.68;;;3.42;;
38805;SDS011;25635;51.146;17.162;2022-11-03T13:19:24;9.00;;;3.10;;
38805;SDS011;25635;51.146;17.162;2022-11-03T13:21:50;9.85;;;3.00;;
38805;SDS011;25635;51.146;17.162;2022-11-03T13:24:16;7.95;;;2.50;;
38805;SDS011;25635;51.146;17.162;2022-11-03T13:26:42;10.18;;;2.60;;
38805;SDS011;25635;51.146;17.162;2022-11-03T13:29:08;7.97;;;2.90;;
38805;SDS011;25635;51.146;17.162;2022-11-03T13:31:35;11.33;;;2.75;;
38805;SDS011;25635;51.146;17.162;2022-11-03T13:34:01;9.63;;;3.00;;
38805;SDS011;25635;51.146;17.162;2022-11-03T13:36:27;12.13;;;3.55;;
38805;SDS011;25635;51.146;17.162;2022-11-03T13:38:53;10.18;;;2.87;;
38805;SDS011;25635;51.146;17.162;2022-11-03T13:41:19;9.40;;;3.02;;
38805;SDS011;25635;51.146;17.162;2022-11-03T13:43:46;12.82;;;5.60;;
38805;SDS011;25635;51.146;17.162;2022-11-03T13:46:12;10.68;;;3.95;;
38805;SDS011;25635;51.146;17.162;2022-11-03T13:48:38;10.60;;;3.55;;
38805;SDS011;25635;51.146;17.162;2022-11-03T13:51:04;9.00;;;3.52;;
38805;SDS011;25635;51.146;17.162;2022-11-03T13:53:31;8.68;;;3.52;;
38805;SDS011;25635;51.146;17.162;2022-11-03T13:55:57;12.82;;;4.37;;
38805;SDS011;25635;51.146;17.162;2022-11-03T13:58:24;11.80;;;3.35;;
38805;SDS011;25635;51.146;17.162;2022-11-03T14:00:50;11.95;;;3.52;;
38805;SDS011;25635;51.146;17.162;2022-11-03T14:03:16;9.28;;;3.75;;
38805;SDS011;25635;51.146;17.162;2022-11-03T14:05:42;12.13;;;3.92;;
38805;SDS011;25635;51.146;17.162;2022-11-03T14:08:09;9.68;;;3.90;;
38805;SDS011;25635;51.146;17.162;2022-11-03T14:10:34;12.47;;;3.87;;
38805;SDS011;25635;51.146;17.162;2022-11-03T14:13:01;9.40;;;4.05;;
38805;SDS011;25635;51.146;17.162;2022-11-03T14:15:27;14.07;;;5.40;;
38805;SDS011;25635;51.146;17.162;2022-11-03T14:17:53;16.17;;;8.70;;
38805;SDS011;25635;51.146;17.162;2022-11-03T14:20:20;12.05;;;5.30;;
38805;SDS011;25635;51.146;17.162;2022-11-03T14:22:46;9.73;;;4.85;;
38805;SDS011;25635;51.146;17.162;2022-11-03T14:25:12;10.10;;;4.90;;
38805;SDS011;25635;51.146;17.162;2022-11-03T14:27:39;10.25;;;4.60;;
38805;SDS011;25635;51.146;17.162;2022-11-03T14:30:05;9.25;;;3.62;;
38805;SDS011;25635;51.146;17.162;2022-11-03T14:32:32;8.98;;;3.92;;
38805;SDS011;25635;51.146;17.162;2022-11-03T14:34:59;15.48;;;5.55;;
38805;SDS011;25635;51.146;17.162;2022-11-03T14:37:25;15.32;;;7.08;;
38805;SDS011;25635;51.146;17.162;2022-11-03T14:39:52;21.23;;;8.68;;
38805;SDS011;25635;51.146;17.162;2022-11-03T14:42:19;22.73;;;10.58;;
38805;SDS011;25635;51.146;17.162;2022-11-03T14:44:46;24.90;;;12.15;;
38805;SDS011;25635;51.146;17.162;2022-11-03T14:47:13;31.12;;;13.95;;
38805;SDS011;25635;51.146;17.162;2022-11-03T14:49:42;32.40;;;16.42;;
38805;SDS011;25635;51.146;17.162;2022-11-03T14:52:10;32.45;;;15.43;;
38805;SDS011;25635;51.146;17.162;2022-11-03T14:54:36;34.03;;;13.75;;
38805;SDS011;25635;51.146;17.162;2022-11-03T14:57:02;24.95;;;11.00;;
38805;SDS011;25635;51.146;17.162;2022-11-03T14:59:29;22.27;;;8.78;;
38805;SDS011;25635;51.146;17.162;2022-11-03T15:01:56;16.52;;;7.33;;
38805;SDS011;25635;51.146;17.162;2022-11-03T15:04:24;14.07;;;5.90;;
38805;SDS011;25635;51.146;17.162;2022-11-03T15:06:51;14.98;;;6.97;;
38805;SDS011;25635;51.146;17.162;2022-11-03T15:09:18;14.43;;;6.10;;
38805;SDS011;25635;51.146;17.162;2022-11-03T15:11:45;11.65;;;5.28;;
38805;SDS011;25635;51.146;17.162;2022-11-03T15:14:11;15.18;;;5.85;;
38805;SDS011;25635;51.146;17.162;2022-11-03T15:16:38;14.78;;;5.78;;
38805;SDS011;25635;51.146;17.162;2022-11-03T15:19:06;12.43;;;5.83;;
38805;SDS011;25635;51.146;17.162;2022-11-03T15:21:33;12.98;;;5.58;;
38805;SDS011;25635;51.146;17.162;2022-11-03T15:23:59;12.70;;;5.85;;
38805;SDS011;25635;51.146;17.162;2022-11-03T15:26:27;14.60;;;6.22;;
38805;SDS011;25635;51.146;17.162;2022-11-03T15:28:53;11.38;;;5.70;;
38805;SDS011;25635;51.146;17.162;2022-11-03T15:31:19;16.77;;;5.67;;
38805;SDS011;25635;51.146;17.162;2022-11-03T15:33:45;11.43;;;5.25;;
38805;SDS011;25635;51.146;17.162;2022-11-03T15:36:11;11.80;;;5.10;;
38805;SDS011;25635;51.146;17.162;2022-11-03T15:38:38;14.45;;;6.17;;
38805;SDS011;25635;51.146;17.162;2022-11-03T15:41:04;14.23;;;5.75;;
38805;SDS011;25635;51.146;17.162;2022-11-03T15:43:40;17.17;;;6.60;;
38805;SDS011;25635;51.146;17.162;2022-11-03T15:46:08;14.05;;;6.42;;
38805;SDS011;25635;51.146;17.162;2022-11-03T15:48:35;15.72;;;6.10;;
38805;SDS011;25635;51.146;17.162;2022-11-03T15:51:02;10.63;;;4.72;;
38805;SDS011;25635;51.146;17.162;2022-11-03T15:53:29;12.65;;;4.42;;
38805;SDS011;25635;51.146;17.162;2022-11-03T15:55:55;14.98;;;4.70;;
38805;SDS011;25635;51.146;17.162;2022-11-03T15:58:22;15.63;;;5.83;;
38805;SDS011;25635;51.146;17.162;2022-11-03T16:00:48;15.13;;;6.20;;